Latest Coastal Weather Observations for Cape Sorell

IDT60701

Issued at 5:12 am EDT Tuesday 7 February 2023 (issued every 10 minutes, with the page automatically refreshed every 10 minutes)

About coastal observations | Map of coastal stations | Coastal observations for TAS | Marine services | Other Formats
Station Details ID: 097000 Name: CAPE SORELL Lat: -42.20 Lon: 145.17 Height: 19.3 m
Data from the previous 72 hours. | See also: Recent months at Cape Sorell
Date/Time
EDT
Wind Sea
Height
m
Swell Vis
km
Cloud Weather Temp
°C
Press
MSL
hPa
Rain since
9am
mm
Dir  Spd
kts
Gust
kts
Height
m
Period
s
Dir
07/05:00am SW 8 10 - - - - - - - 13.4 1017.4 0.8
07/04:30am WSW 8 11 - - - - - - - 13.3 1017.4 0.8
07/04:00am SW 9 11 - - - - - - - 13.1 1017.4 0.8
07/03:30am SW 14 17 - - - - - - - 12.6 1017.6 0.8
07/03:00am WSW 13 19 - - - - - - Recent precip. 13.2 1017.5 0.8
07/02:30am SW 10 14 - - - - - - - 12.9 1017.8 0.8
07/02:05am W 9 19 - - - - - - - 13.2 1017.6 0.2
07/02:00am W 6 9 - - - - - - - 13.1 1017.8 0.0
07/01:30am SW 7 9 - - - - - - - 13.8 1017.9 0.0
07/01:00am WSW 11 15 - - - - - - - 14.3 1017.9 0.0
07/12:30am SW 13 16 - - - - - - - 14.8 1017.8 0.0
07/12:00am WSW 11 15 - - - - - - - 14.6 1018.0 0.0
 
Date/Time
EDT
Wind Sea
Height
m
Swell Vis
km
Cloud Weather Temp
°C
Press
MSL
hPa
Rain since
9am
mm
Dir  Spd
kts
Gust
kts
Height
m
Period
s
Dir
06/11:30pm WSW 8 14 - - - - - - - 14.6 1018.0 0.0
06/11:00pm WSW 13 18 - - - - - - - 14.8 1018.1 0.0
06/10:30pm WSW 12 15 - - - - - - - 14.7 1018.1 0.0
06/10:00pm SW 13 15 - - - - - - - 14.7 1017.9 0.0
06/09:30pm WSW 13 15 - - - - - - - 15.0 1017.6 0.0
06/09:00pm WSW 15 18 - - - - - - - 15.0 1017.4 0.0
06/08:30pm SW 13 17 - - - - - - - 15.1 1017.3 0.0
06/08:00pm WSW 13 17 - - - - - - - 15.2 1017.2 0.0
06/07:30pm WSW 13 17 - - - - - - - 15.4 1017.1 0.0
06/07:00pm WSW 16 19 - - - - - - - 16.4 1017.0 0.0
06/06:30pm WSW 19 22 - - - - - - - 16.3 1016.9 0.0
06/06:00pm WSW 13 16 - - - - - - - 17.3 1017.1 0.0
06/05:30pm WSW 12 15 - - - - - - - 18.0 1017.0 0.0
06/05:00pm WSW 15 20 - - - - - - - 18.1 1016.9 0.0
06/04:30pm SW 17 21 - - - - - - - 17.1 1017.1 0.0
06/04:00pm WSW 14 17 - - - - - - - 18.1 1017.3 0.0
06/03:30pm WSW 13 17 - - - - - - - 18.1 1017.3 0.0
06/03:00pm WSW 14 17 - - - - - - - 19.2 1017.4 0.0
06/02:30pm WSW 13 16 - - - - - - - 18.0 1017.5 0.0
06/02:00pm W 11 16 - - - - - - - 17.4 1017.6 0.0
06/01:30pm WSW 14 19 - - - - - - - 15.6 1017.4 0.0
06/01:00pm WSW 11 16 - - - - - - - 18.2 1017.2 0.0
06/12:30pm WSW 12 16 - - - - - - - 17.5 1017.4 0.0
06/12:00pm WSW 12 19 - - - - - - - 17.4 1017.5 0.0
06/11:30am WSW 13 17 - - - - - - - 17.8 1017.5 0.0
06/11:00am WSW 14 18 - - - - - - - 17.2 1017.2 0.0
06/10:30am WSW 14 18 - - - - - - - 16.6 1017.1 0.0
06/10:00am W 12 16 - - - - - - - 16.3 1016.8 0.0
06/09:30am WSW 12 15 - - - - - - - 15.5 1016.7 0.0
06/09:00am WSW 14 20 - - - - - - - 14.7 1016.5 0.6
06/08:30am WSW 12 15 - - - - - - - 14.7 1016.4 0.6
06/08:00am W 9 13 - - - - - - - 14.4 1016.1 0.6
06/07:30am W 11 15 - - - - - - - 14.4 1016.1 0.4
06/07:00am W 11 16 - - - - - - - 14.2 1015.9 0.4
06/06:30am WSW 13 16 - - - - - - - 14.2 1015.6 0.4
06/06:00am W 8 11 - - - - - - Rain 14.1 1015.3 0.4
06/05:30am W 8 11 - - - - - - - 14.0 1015.3 0.2
06/05:00am W 10 14 - - - - - - - 13.9 1015.1 0.2
06/04:30am WNW 7 10 - - - - - - - 14.0 1015.2 0.0
06/04:00am NW 7 11 - - - - - - - 14.1 1015.3 0.0
06/03:30am WNW 11 15 - - - - - - - 14.6 1015.2 0.0
06/03:00am NW 7 11 - - - - - - - 14.8 1015.4 0.0
06/02:30am WNW 7 9 - - - - - - - 14.8 1015.5 0.0
06/02:00am WNW 10 13 - - - - - - - 14.7 1015.6 0.0
06/01:30am WNW 8 11 - - - - - - - 14.7 1015.7 0.0
06/01:00am NW 7 11 - - - - - - - 14.8 1015.9 0.0
06/12:30am NW 6 7 - - - - - - - 14.8 1015.9 0.0
06/12:00am WSW 11 16 - - - - - - - 14.8 1015.8 0.0
 
Date/Time
EDT
Wind Sea
Height
m
Swell Vis
km
Cloud Weather Temp
°C
Press
MSL
hPa
Rain since
9am
mm
Dir  Spd
kts
Gust
kts
Height
m
Period
s
Dir
05/11:30pm W 9 14 - - - - - - - 15.0 1015.8 0.0
05/11:00pm NW 5 9 - - - - - - - 14.6 1015.8 0.0
05/10:30pm NW 5 7 - - - - - - - 14.7 1016.1 0.0
05/10:00pm W 11 16 - - - - - - - 14.8 1016.2 0.0
05/09:30pm WSW 11 15 - - - - - - - 15.4 1015.9 0.0
05/09:00pm WNW 8 11 - - - - - - - 15.4 1015.8 0.0
05/08:30pm NW 7 11 - - - - - - - 15.4 1015.6 0.0
05/08:00pm NW 7 9 - - - - - - - 15.5 1015.5 0.0
05/07:30pm NW 5 8 - - - - - - - 15.7 1015.3 0.0
05/07:00pm WNW 6 8 - - - - - - - 15.7 1015.2 0.0
05/06:30pm WNW 6 10 - - - - - - - 16.0 1015.1 0.0
05/06:00pm WNW 8 10 - - - - - - - 15.9 1015.1 0.0
05/05:30pm WNW 7 11 - - - - - - - 16.1 1015.3 0.0
05/05:00pm W 8 11 - - - - - - - 16.5 1015.2 0.0
05/04:30pm W 7 11 - - - - - - - 16.8 1015.3 0.0
05/04:00pm W 6 10 - - - - - - - 16.6 1015.3 0.0
05/03:30pm W 6 8 - - - - - - - 17.9 1015.3 0.0
05/03:00pm WSW 7 10 - - - - - - - 17.6 1015.4 0.0
05/02:30pm WSW 5 9 - - - - - - - 17.2 1015.3 0.0
05/02:00pm WSW 6 8 - - - - - - - 17.3 1015.3 0.0
05/01:30pm WSW 6 9 - - - - - - - 16.9 1015.2 0.0
05/01:00pm W 5 8 - - - - - - - 16.6 1015.2 0.0
05/12:30pm WSW 6 8 - - - - - - - 17.5 1015.0 0.0
05/12:00pm WSW 7 11 - - - - - - - 17.2 1014.9 0.0
05/11:30am WSW 10 13 - - - - - - - 17.6 1014.9 0.0
05/11:00am WSW 7 10 - - - - - - - 16.7 1014.8 0.0
05/10:30am W 5 7 - - - - - - - 18.5 1014.4 0.0
05/10:00am WSW 8 9 - - - - - - - 16.2 1014.2 0.0
05/09:30am WSW 11 13 - - - - - - - 15.3 1013.8 0.0
05/09:00am SW 11 14 - - - - - - - 15.2 1013.5 0.2
05/08:30am SW 13 16 - - - - - - - 15.1 1013.0 0.2
05/08:00am SW 12 15 - - - - - - - 15.0 1012.5 0.2
05/07:30am SW 12 15 - - - - - - - 14.5 1012.2 0.2
05/07:00am SSW 12 15 - - - - - - - 14.4 1011.8 0.2
05/06:30am SW 7 9 - - - - - - - 14.4 1011.5 0.2
05/06:00am SW 14 17 - - - - - - - 14.7 1010.9 0.2
05/05:30am SSW 12 15 - - - - - - - 14.8 1010.5 0.2
05/05:00am SSW 8 12 - - - - - - - 14.7 1010.2 0.2
05/04:30am SSW 14 19 - - - - - - - 14.9 1010.0 0.2
05/04:00am SSW 12 15 - - - - - - - 14.8 1010.0 0.2
05/03:30am SW 17 20 - - - - - - - 14.9 1009.8 0.2
05/03:00am SW 19 21 - - - - - - - 14.8 1009.6 0.2
05/02:30am SW 18 23 - - - - - - - 14.8 1009.5 0.2
05/02:00am SSW 16 20 - - - - - - - 14.7 1009.5 0.2
05/01:30am SW 18 22 - - - - - - - 14.8 1009.2 0.2
05/01:00am SW 21 26 - - - - - - - 14.6 1008.9 0.2
05/12:30am SW 20 24 - - - - - - - 14.9 1008.9 0.2
05/12:00am SSW 20 23 - - - - - - - 14.8 1008.8 0.2
 
Date/Time
EDT
Wind Sea
Height
m
Swell Vis
km
Cloud Weather Temp
°C
Press
MSL
hPa
Rain since
9am
mm
Dir  Spd
kts
Gust
kts
Height
m
Period
s
Dir
04/11:30pm SSW 20 24 - - - - - - - 14.8 1008.8 0.2
04/11:00pm SSW 22 27 - - - - - - - 14.6 1008.6 0.2
04/10:30pm SSW 23 26 - - - - - - - 14.8 1008.3 0.2
04/10:00pm SW 23 27 - - - - - - - 15.0 1008.0 0.2
04/09:30pm SSW 24 29 - - - - - - - 15.1 1007.5 0.2
04/09:00pm SW 26 30 - - - - - - - 14.8 1006.8 0.2
04/08:30pm SSW 25 29 - - - - - - - 14.8 1006.4 0.2
04/08:00pm SSW 26 30 - - - - - - - 14.8 1005.9 0.2
04/07:30pm SSW 26 30 - - - - - - - 15.2 1005.4 0.2
04/07:00pm SSW 25 29 - - - - - - - 15.3 1005.0 0.2
04/06:30pm SSW 27 31 - - - - - - - 15.6 1004.4 0.2
04/06:00pm SSW 26 30 - - - - - - - 15.4 1004.0 0.2
04/05:30pm SSW 26 30 - - - - - - - 15.7 1003.6 0.2
04/05:00pm SSW 27 33 - - - - - - - 15.4 1003.4 0.2
04/04:30pm SSW 27 31 - - - - - - - 15.6 1003.0 0.2
04/04:00pm SSW 27 31 - - - - - - - 15.1 1002.7 0.2
04/03:30pm SSW 28 33 - - - - - - - 15.0 1002.4 0.2
04/03:00pm SSW 28 34 - - - - - - - 15.1 1001.9 0.2
04/02:30pm SSW 28 33 - - - - - - - 15.1 1001.8 0.2
04/02:00pm SSW 29 35 - - - - - - - 14.9 1001.3 0.2
04/01:30pm SW 30 34 - - - - - - - 14.3 1000.9 0.2
04/01:00pm SW 30 34 - - - - - - - 14.1 1000.5 0.2
04/12:30pm SW 28 35 - - - - - - - 14.1 1000.2 0.2
04/12:00pm SW 28 33 - - - - - - - 14.0 999.7 0.2
04/11:30am SSW 27 35 - - - - - - - 13.9 999.4 0.2
04/11:00am SSW 27 32 - - - - - - - 14.0 999.1 0.2
04/10:30am SSW 27 31 - - - - - - - 14.1 998.9 0.2
04/10:00am SSW 27 31 - - - - - - - 14.0 998.5 0.2
04/09:30am SSW 28 33 - - - - - - - 13.8 998.2 0.2
04/09:00am SSW 28 35 - - - - - - Recent precip. 13.5 997.9 15.2
04/08:30am SSW 26 32 - - - - - - - 13.6 997.4 15.0
04/08:00am SSW 28 34 - - - - - - - 13.6 997.0 14.6
04/07:30am SSW 27 32 - - - - - - - 13.6 996.6 13.8
04/07:00am SSW 28 34 - - - - - - - 13.3 996.1 13.6
04/06:30am SSW 26 31 - - - - - - - 13.6 995.8 13.0
04/06:20am SSW 21 31 - - - - - - - 13.6 995.5 13.0
04/06:00am SSW 21 23 - - - - - - Rain 13.8 995.4 12.8
04/05:30am SSW 22 26 - - - - - - - 13.7 995.1 12.6

Other formats

Comma delimited format used in spreadsheet applications
http://www.bom.gov.au/fwo/IDT60701/IDT60701.94974.axf

JavaScript Object Notation format (JSON) in row-major order
http://www.bom.gov.au/fwo/IDT60701/IDT60701.94974.json

Data quality

Most of these data are generated automatically and are frequently updated. Quality checks on data are not normally performed. It is possible for incorrect values to appear. Refer to information at About Latest Weather Observations and please check the disclaimer before using these data.